WetterOnline ( https://www.wetteronline.de )

Wetter aktuell Windehausen

Aktuelles Wetter: Harzgerode (405m)

6-stündlich | Neueste Meldungen
Ortszeit Temperatur Wetter
Sa, 28.11. 13:00 1.1° C bedeckt
Sa, 28.11. 7:00 2.0° C Nebel
Sa, 28.11. 1:00 1.8° C Nebel
Fr, 27.11. 19:00 3.2° C bedeckt
Fr, 27.11. 13:00 5.6° C bedeckt
Fr, 27.11. 7:00 4.9° C Nebel
Fr, 27.11. 1:00 3.7° C bedeckt
Do, 26.11. 19:00 4.4° C leicht bewölkt
Ortszeit Temperatur Wetter
Sa, 28.11. 18:30 -0.9° C bedeckt
Sa, 28.11. 18:20 -0.9° C bedeckt
Sa, 28.11. 18:10 -0.8° C bedeckt
Sa, 28.11. 18:00 -0.6° C bedeckt
Sa, 28.11. 17:50 -0.6° C bedeckt
Sa, 28.11. 17:40 -0.5° C bedeckt
Sa, 28.11. 17:30 -0.2° C bedeckt
Sa, 28.11. 17:00 0.1° C bedeckt
Sa, 28.11. 16:30 0.1° C bedeckt
Sa, 28.11. 16:00 0.3° C bedeckt
Sa, 28.11. 15:30 0.4° C bedeckt
Ortszeit Relative Feuchte Sichtweite
Sa, 28.11. 13:00 92% 12 km
Sa, 28.11. 7:00 100% 0.2 km
Sa, 28.11. 1:00 100% 100 m
Fr, 27.11. 19:00 99% 1.9 km
Fr, 27.11. 13:00 97% 6 km
Fr, 27.11. 7:00 99% <100 m
Fr, 27.11. 1:00 97% 8 km
Do, 26.11. 19:00 92% 23 km
Ortszeit Relative Feuchte Sichtweite
Sa, 28.11. 18:30 92% 14 km
Sa, 28.11. 18:20 92% -
Sa, 28.11. 18:10 93% -
Sa, 28.11. 18:00 94% 9 km
Sa, 28.11. 17:50 94% -
Sa, 28.11. 17:40 93% -
Sa, 28.11. 17:30 94% 8 km
Sa, 28.11. 17:00 92% 12 km
Sa, 28.11. 16:30 91% 14 km
Sa, 28.11. 16:00 90% 15 km
Sa, 28.11. 15:30 91% 13 km
Ortszeit Niederschlagsmenge Niederschlagsart
Sa, 28.11. 13:00 0.1 l/m2 in 6 Std. Sprühregen
Sa, 28.11. 7:00 0.1 l/m2 in 12 Std. Sprühregen
Sa, 28.11. 1:00 0.0 l/m2 in 6 Std. -
Fr, 27.11. 19:00 0.0 l/m2 in 12 Std. -
Fr, 27.11. 13:00 0.0 l/m2 in 6 Std. -
Fr, 27.11. 7:00 0.1 l/m2 in 12 Std. Sprühregen
Fr, 27.11. 1:00 0.0 l/m2 in 6 Std. -
Do, 26.11. 19:00 0.0 l/m2 in 12 Std. -
Ortszeit Niederschlagsmenge Niederschlagsart
Sa, 28.11. 18:30 0.0 l/m2 in 1 Std. -
Sa, 28.11. 18:20 keine Meldung -
Sa, 28.11. 18:10 keine Meldung -
Sa, 28.11. 18:00 0.0 l/m2 in 1 Std. -
Sa, 28.11. 17:50 keine Meldung -
Sa, 28.11. 17:40 keine Meldung -
Sa, 28.11. 17:30 0.0 l/m2 in 1 Std. -
Sa, 28.11. 17:00 0.0 l/m2 in 1 Std. -
Sa, 28.11. 16:30 0.0 l/m2 in 1 Std. -
Sa, 28.11. 16:00 0.0 l/m2 in 1 Std. -
Sa, 28.11. 15:30 0.0 l/m2 in 1 Std. -
Ortszeit Stärke Spitze Richtung
km/h Bft. km/h Grad Sektor
Sa, 28.11. 13:00 9 2 20 100° O
Sa, 28.11. 7:00 11 2 18 100° O
Sa, 28.11. 1:00 6 1 17 200° S
Fr, 27.11. 19:00 7 2 15 120° SO
Fr, 27.11. 13:00 4 1 11 130° SO
Fr, 27.11. 7:00 0 0 11 - -
Fr, 27.11. 1:00 9 2 13 240° SW
Do, 26.11. 19:00 4 1 36 210° SW
Ortszeit Stärke Spitze Richtung
km/h Bft. km/h Grad Sektor
Sa, 28.11. 18:30 14 3 22 90° O
Sa, 28.11. 18:20 14 3 - 90° O
Sa, 28.11. 18:10 13 3 - 110° O
Sa, 28.11. 18:00 13 3 24 60° NO
Sa, 28.11. 17:50 13 3 - 60° NO
Sa, 28.11. 17:40 13 3 - 70° O
Sa, 28.11. 17:30 9 2 24 70° O
Sa, 28.11. 17:00 11 2 24 80° O
Sa, 28.11. 16:30 11 2 25 80° O
Sa, 28.11. 16:00 9 2 19 70° O
Sa, 28.11. 15:30 7 2 11 120° SO
Ortszeit Untergrenze Bedeckung Gattung
total tief tief mittel hoch
Sa, 28.11. 13:00 210 m 8/8 8/8 - - -
Sa, 28.11. 7:00 <30 m 8/8 0/8 - - -
Sa, 28.11. 1:00 <30 m 8/8 0/8 - - -
Fr, 27.11. 19:00 30 m 8/8 8/8 - - -
Fr, 27.11. 13:00 60 m 8/8 8/8 - - -
Fr, 27.11. 7:00 <30 m 8/8 0/8 - - -
Fr, 27.11. 1:00 180 m 8/8 8/8 - - -
Do, 26.11. 19:00 1380 m 3/8 3/8 - - -
Ortszeit Bedeckungsgrad in Achtel und Wolkenuntergrenze
Sa, 28.11. 18:30 8(150m)
Sa, 28.11. 18:20 8(150m)
Sa, 28.11. 18:10 8(120m)
Sa, 28.11. 18:00 8(120m)
Sa, 28.11. 17:50 8(120m)
Sa, 28.11. 17:40 8(120m)
Sa, 28.11. 17:30 8(120m)
Sa, 28.11. 17:00 8(180m)
Sa, 28.11. 16:30 8(180m)
Sa, 28.11. 16:00 8(180m)
Sa, 28.11. 15:30 8(180m)
Ortszeit Luftdruck NN (hPa) Tendenz (hPa in 3 Std.)
Sa, 28.11. 13:00 1025 + 0,2
Sa, 28.11. 7:00 1023 + 0,2
Sa, 28.11. 1:00 1023 0,0
Fr, 27.11. 19:00 1023 + 0,9
Fr, 27.11. 13:00 1021 - 0,3
Fr, 27.11. 7:00 1021 + 0,1
Fr, 27.11. 1:00 1022 - 0,3
Do, 26.11. 19:00 1022 + 0,6
Ortszeit Luftdruck NN (hPa) Tendenz (hPa in 3 Std.)
Sa, 28.11. 18:30 1027 + 1,5
Sa, 28.11. 18:20 1027 keine Meldung
Sa, 28.11. 18:10 1026 keine Meldung
Sa, 28.11. 18:00 1026 + 1,2
Sa, 28.11. 17:50 1026 keine Meldung
Sa, 28.11. 17:40 1026 keine Meldung
Sa, 28.11. 17:30 1026 + 1,0
Sa, 28.11. 17:00 1026 + 0,9
Sa, 28.11. 16:30 1025 + 0,5
Sa, 28.11. 16:00 1025 + 0,1
Sa, 28.11. 15:30 1025 - 0,1
Ortszeit Schneehöhe (cm)
Sa, 28.11. 13:00 0
Sa, 28.11. 7:00 0
Sa, 28.11. 1:00 0
Fr, 27.11. 19:00 0
Fr, 27.11. 13:00 0
Fr, 27.11. 7:00 0
Fr, 27.11. 1:00 0
Do, 26.11. 19:00 0
Ortszeit Schneehöhe (cm)
Sa, 28.11. 18:30 0
Sa, 28.11. 18:20 0
Sa, 28.11. 18:10 0
Sa, 28.11. 18:00 0
Sa, 28.11. 17:50 0
Sa, 28.11. 17:40 0
Sa, 28.11. 17:30 0
Sa, 28.11. 17:00 0
Sa, 28.11. 16:30 0
Sa, 28.11. 16:00 0
Sa, 28.11. 15:30 0
Link zu dieser Seite / Seite empfehlen

Das Wetter in ...